sensor_id;sensor_type;location;lat;lon;timestamp;P1;durP1;ratioP1;P2;durP2;ratioP2
51578;SDS011;47998;53.242;6.386;2024-02-14T00:02:09;20.17;;;10.25;;
51578;SDS011;47998;53.242;6.386;2024-02-14T00:04:35;18.48;;;11.85;;
51578;SDS011;47998;53.242;6.386;2024-02-14T00:07:00;18.67;;;11.93;;
51578;SDS011;47998;53.242;6.386;2024-02-14T00:09:26;19.58;;;11.73;;
51578;SDS011;47998;53.242;6.386;2024-02-14T00:11:52;20.40;;;11.68;;
51578;SDS011;47998;53.242;6.386;2024-02-14T00:14:18;21.08;;;11.27;;
51578;SDS011;47998;53.242;6.386;2024-02-14T00:16:46;16.55;;;11.82;;
51578;SDS011;47998;53.242;6.386;2024-02-14T00:19:12;20.77;;;13.30;;
51578;SDS011;47998;53.242;6.386;2024-02-14T00:21:39;20.23;;;13.93;;
51578;SDS011;47998;53.242;6.386;2024-02-14T00:24:05;23.60;;;13.38;;
51578;SDS011;47998;53.242;6.386;2024-02-14T00:26:31;22.65;;;14.63;;
51578;SDS011;47998;53.242;6.386;2024-02-14T00:28:56;22.83;;;13.13;;
51578;SDS011;47998;53.242;6.386;2024-02-14T00:31:22;24.55;;;14.98;;
51578;SDS011;47998;53.242;6.386;2024-02-14T00:33:48;28.75;;;15.80;;
51578;SDS011;47998;53.242;6.386;2024-02-14T00:36:14;29.15;;;16.55;;
51578;SDS011;47998;53.242;6.386;2024-02-14T00:38:40;22.85;;;15.48;;
51578;SDS011;47998;53.242;6.386;2024-02-14T00:41:06;23.95;;;15.95;;
51578;SDS011;47998;53.242;6.386;2024-02-14T00:43:31;23.70;;;17.17;;
51578;SDS011;47998;53.242;6.386;2024-02-14T00:45:57;26.75;;;17.25;;
51578;SDS011;47998;53.242;6.386;2024-02-14T00:48:23;26.30;;;18.73;;
51578;SDS011;47998;53.242;6.386;2024-02-14T00:50:49;22.65;;;16.17;;
51578;SDS011;47998;53.242;6.386;2024-02-14T00:53:15;29.85;;;18.25;;
51578;SDS011;47998;53.242;6.386;2024-02-14T00:55:40;31.67;;;20.25;;
51578;SDS011;47998;53.242;6.386;2024-02-14T00:58:07;32.63;;;19.52;;
51578;SDS011;47998;53.242;6.386;2024-02-14T01:00:32;30.95;;;20.63;;
51578;SDS011;47998;53.242;6.386;2024-02-14T01:02:58;33.15;;;20.55;;
51578;SDS011;47998;53.242;6.386;2024-02-14T01:05:24;34.20;;;20.95;;
51578;SDS011;47998;53.242;6.386;2024-02-14T01:07:50;30.77;;;20.08;;
51578;SDS011;47998;53.242;6.386;2024-02-14T01:10:16;33.25;;;20.80;;
51578;SDS011;47998;53.242;6.386;2024-02-14T01:12:43;28.30;;;20.75;;
51578;SDS011;47998;53.242;6.386;2024-02-14T01:15:09;33.92;;;21.08;;
51578;SDS011;47998;53.242;6.386;2024-02-14T01:17:35;32.67;;;20.63;;
51578;SDS011;47998;53.242;6.386;2024-02-14T01:20:03;29.95;;;19.13;;
51578;SDS011;47998;53.242;6.386;2024-02-14T01:22:31;32.78;;;18.75;;
51578;SDS011;47998;53.242;6.386;2024-02-14T01:24:56;27.00;;;19.58;;
51578;SDS011;47998;53.242;6.386;2024-02-14T01:27:24;27.40;;;20.00;;
51578;SDS011;47998;53.242;6.386;2024-02-14T01:29:50;23.27;;;15.75;;
51578;SDS011;47998;53.242;6.386;2024-02-14T01:32:15;29.60;;;19.23;;
51578;SDS011;47998;53.242;6.386;2024-02-14T01:34:42;22.05;;;16.08;;
51578;SDS011;47998;53.242;6.386;2024-02-14T01:37:08;21.77;;;15.55;;
51578;SDS011;47998;53.242;6.386;2024-02-14T01:39:37;21.00;;;16.60;;
51578;SDS011;47998;53.242;6.386;2024-02-14T01:42:03;21.95;;;16.58;;
51578;SDS011;47998;53.242;6.386;2024-02-14T01:44:32;21.67;;;16.15;;
51578;SDS011;47998;53.242;6.386;2024-02-14T01:47:02;19.83;;;15.13;;
51578;SDS011;47998;53.242;6.386;2024-02-14T01:49:28;20.00;;;13.88;;
51578;SDS011;47998;53.242;6.386;2024-02-14T01:51:55;14.52;;;11.32;;
51578;SDS011;47998;53.242;6.386;2024-02-14T01:54:24;16.48;;;13.15;;
51578;SDS011;47998;53.242;6.386;2024-02-14T01:56:52;16.23;;;11.93;;
51578;SDS011;47998;53.242;6.386;2024-02-14T01:59:20;15.02;;;12.13;;
51578;SDS011;47998;53.242;6.386;2024-02-14T02:01:46;12.40;;;9.05;;
51578;SDS011;47998;53.242;6.386;2024-02-14T02:04:12;18.23;;;12.73;;
51578;SDS011;47998;53.242;6.386;2024-02-14T02:06:37;11.23;;;8.23;;
51578;SDS011;47998;53.242;6.386;2024-02-14T02:09:06;13.85;;;10.13;;
51578;SDS011;47998;53.242;6.386;2024-02-14T02:11:51;13.50;;;11.32;;
51578;SDS011;47998;53.242;6.386;2024-02-14T02:14:25;13.83;;;10.17;;
51578;SDS011;47998;53.242;6.386;2024-02-14T02:16:51;12.60;;;11.02;;
51578;SDS011;47998;53.242;6.386;2024-02-14T02:19:18;11.55;;;8.70;;
51578;SDS011;47998;53.242;6.386;2024-02-14T02:21:44;12.98;;;10.77;;
51578;SDS011;47998;53.242;6.386;2024-02-14T02:24:11;12.23;;;10.02;;
51578;SDS011;47998;53.242;6.386;2024-02-14T02:26:37;15.90;;;12.00;;
51578;SDS011;47998;53.242;6.386;2024-02-14T02:29:03;17.92;;;11.30;;
51578;SDS011;47998;53.242;6.386;2024-02-14T02:31:31;12.48;;;10.07;;
51578;SDS011;47998;53.242;6.386;2024-02-14T02:33:57;13.02;;;9.85;;
51578;SDS011;47998;53.242;6.386;2024-02-14T02:36:23;13.35;;;10.38;;
51578;SDS011;47998;53.242;6.386;2024-02-14T02:38:50;11.63;;;8.98;;
51578;SDS011;47998;53.242;6.386;2024-02-14T02:41:16;11.20;;;6.47;;
51578;SDS011;47998;53.242;6.386;2024-02-14T02:43:42;16.02;;;12.85;;
51578;SDS011;47998;53.242;6.386;2024-02-14T02:46:11;15.25;;;11.30;;
51578;SDS011;47998;53.242;6.386;2024-02-14T02:48:36;12.07;;;9.07;;
51578;SDS011;47998;53.242;6.386;2024-02-14T02:51:02;16.45;;;10.98;;
51578;SDS011;47998;53.242;6.386;2024-02-14T02:53:28;14.90;;;11.00;;
51578;SDS011;47998;53.242;6.386;2024-02-14T02:55:54;13.85;;;10.30;;
51578;SDS011;47998;53.242;6.386;2024-02-14T02:58:22;16.60;;;11.02;;
51578;SDS011;47998;53.242;6.386;2024-02-14T03:00:48;13.77;;;9.77;;
51578;SDS011;47998;53.242;6.386;2024-02-14T03:03:14;13.88;;;9.10;;
51578;SDS011;47998;53.242;6.386;2024-02-14T03:05:41;12.85;;;9.27;;
51578;SDS011;47998;53.242;6.386;2024-02-14T03:08:09;11.18;;;8.27;;
51578;SDS011;47998;53.242;6.386;2024-02-14T03:10:39;15.15;;;9.98;;
51578;SDS011;47998;53.242;6.386;2024-02-14T03:13:06;12.38;;;9.15;;
51578;SDS011;47998;53.242;6.386;2024-02-14T03:15:36;10.20;;;7.78;;
51578;SDS011;47998;53.242;6.386;2024-02-14T03:18:02;13.02;;;8.95;;
51578;SDS011;47998;53.242;6.386;2024-02-14T03:20:33;16.63;;;11.43;;
51578;SDS011;47998;53.242;6.386;2024-02-14T03:22:59;14.55;;;9.63;;
51578;SDS011;47998;53.242;6.386;2024-02-14T03:25:25;16.42;;;11.15;;
51578;SDS011;47998;53.242;6.386;2024-02-14T03:27:51;14.00;;;10.32;;
51578;SDS011;47998;53.242;6.386;2024-02-14T03:30:21;18.33;;;11.90;;
51578;SDS011;47998;53.242;6.386;2024-02-14T03:32:47;13.85;;;9.57;;
51578;SDS011;47998;53.242;6.386;2024-02-14T03:35:17;17.17;;;11.60;;
51578;SDS011;47998;53.242;6.386;2024-02-14T03:37:45;15.05;;;10.07;;
51578;SDS011;47998;53.242;6.386;2024-02-14T03:40:14;19.90;;;11.43;;
51578;SDS011;47998;53.242;6.386;2024-02-14T03:42:39;16.02;;;10.65;;
51578;SDS011;47998;53.242;6.386;2024-02-14T03:45:06;15.15;;;9.55;;
51578;SDS011;47998;53.242;6.386;2024-02-14T03:47:33;15.52;;;10.63;;
51578;SDS011;47998;53.242;6.386;2024-02-14T03:49:59;17.02;;;11.25;;
51578;SDS011;47998;53.242;6.386;2024-02-14T03:52:25;14.35;;;9.93;;
51578;SDS011;47998;53.242;6.386;2024-02-14T03:54:51;15.20;;;10.57;;
51578;SDS011;47998;53.242;6.386;2024-02-14T03:57:17;16.58;;;11.30;;
51578;SDS011;47998;53.242;6.386;2024-02-14T03:59:46;19.17;;;11.77;;
51578;SDS011;47998;53.242;6.386;2024-02-14T04:02:12;15.65;;;10.95;;
51578;SDS011;47998;53.242;6.386;2024-02-14T04:04:39;17.48;;;11.07;;
51578;SDS011;47998;53.242;6.386;2024-02-14T04:07:07;20.27;;;12.57;;
51578;SDS011;47998;53.242;6.386;2024-02-14T04:09:34;15.90;;;11.15;;
51578;SDS011;47998;53.242;6.386;2024-02-14T04:12:00;16.95;;;11.48;;
51578;SDS011;47998;53.242;6.386;2024-02-14T04:14:26;14.98;;;11.02;;
51578;SDS011;47998;53.242;6.386;2024-02-14T04:16:52;14.98;;;9.45;;
51578;SDS011;47998;53.242;6.386;2024-02-14T04:19:17;15.63;;;11.57;;
51578;SDS011;47998;53.242;6.386;2024-02-14T04:21:43;13.32;;;9.95;;
51578;SDS011;47998;53.242;6.386;2024-02-14T04:24:09;14.73;;;10.13;;
51578;SDS011;47998;53.242;6.386;2024-02-14T04:26:35;14.55;;;9.75;;
51578;SDS011;47998;53.242;6.386;2024-02-14T04:29:01;16.48;;;10.35;;
51578;SDS011;47998;53.242;6.386;2024-02-14T04:31:27;15.50;;;11.07;;
51578;SDS011;47998;53.242;6.386;2024-02-14T04:33:55;21.10;;;12.82;;
51578;SDS011;47998;53.242;6.386;2024-02-14T04:36:21;15.10;;;10.75;;
51578;SDS011;47998;53.242;6.386;2024-02-14T04:38:50;16.13;;;10.43;;
51578;SDS011;47998;53.242;6.386;2024-02-14T04:41:20;12.18;;;9.23;;
51578;SDS011;47998;53.242;6.386;2024-02-14T04:43:46;18.00;;;11.10;;
51578;SDS011;47998;53.242;6.386;2024-02-14T04:46:12;15.43;;;9.93;;
51578;SDS011;47998;53.242;6.386;2024-02-14T04:48:38;14.30;;;9.50;;
51578;SDS011;47998;53.242;6.386;2024-02-14T04:51:04;18.60;;;11.15;;
51578;SDS011;47998;53.242;6.386;2024-02-14T04:53:30;15.80;;;10.15;;
51578;SDS011;47998;53.242;6.386;2024-02-14T04:55:56;11.52;;;7.50;;
51578;SDS011;47998;53.242;6.386;2024-02-14T04:58:22;15.15;;;9.00;;
51578;SDS011;47998;53.242;6.386;2024-02-14T05:00:48;16.80;;;10.63;;
51578;SDS011;47998;53.242;6.386;2024-02-14T05:03:15;10.25;;;7.13;;
51578;SDS011;47998;53.242;6.386;2024-02-14T05:05:41;16.08;;;8.98;;
51578;SDS011;47998;53.242;6.386;2024-02-14T05:08:07;18.85;;;11.05;;
51578;SDS011;47998;53.242;6.386;2024-02-14T05:10:33;16.13;;;10.45;;
51578;SDS011;47998;53.242;6.386;2024-02-14T05:12:58;15.60;;;8.45;;
51578;SDS011;47998;53.242;6.386;2024-02-14T05:15:24;16.05;;;10.10;;
51578;SDS011;47998;53.242;6.386;2024-02-14T05:17:51;12.65;;;7.88;;
51578;SDS011;47998;53.242;6.386;2024-02-14T05:20:17;18.10;;;8.95;;
51578;SDS011;47998;53.242;6.386;2024-02-14T05:22:49;14.43;;;9.30;;
51578;SDS011;47998;53.242;6.386;2024-02-14T05:25:22;15.75;;;8.88;;
51578;SDS011;47998;53.242;6.386;2024-02-14T05:27:48;14.90;;;7.72;;
51578;SDS011;47998;53.242;6.386;2024-02-14T05:30:14;16.90;;;8.40;;
51578;SDS011;47998;53.242;6.386;2024-02-14T05:32:40;10.98;;;6.55;;
51578;SDS011;47998;53.242;6.386;2024-02-14T05:35:05;14.63;;;7.20;;
51578;SDS011;47998;53.242;6.386;2024-02-14T05:37:32;15.07;;;7.68;;
51578;SDS011;47998;53.242;6.386;2024-02-14T05:39:57;12.63;;;7.30;;
51578;SDS011;47998;53.242;6.386;2024-02-14T05:42:23;19.25;;;8.95;;
51578;SDS011;47998;53.242;6.386;2024-02-14T05:44:49;17.90;;;8.55;;
51578;SDS011;47998;53.242;6.386;2024-02-14T05:47:20;11.95;;;7.20;;
51578;SDS011;47998;53.242;6.386;2024-02-14T05:49:46;11.45;;;6.35;;
51578;SDS011;47998;53.242;6.386;2024-02-14T05:52:12;16.20;;;7.15;;
51578;SDS011;47998;53.242;6.386;2024-02-14T05:54:40;16.40;;;8.02;;
51578;SDS011;47998;53.242;6.386;2024-02-14T05:57:05;10.30;;;6.47;;
51578;SDS011;47998;53.242;6.386;2024-02-14T05:59:32;9.77;;;5.13;;
51578;SDS011;47998;53.242;6.386;2024-02-14T06:01:58;14.70;;;6.80;;
51578;SDS011;47998;53.242;6.386;2024-02-14T06:04:23;16.60;;;7.03;;
51578;SDS011;47998;53.242;6.386;2024-02-14T06:06:49;21.52;;;9.35;;
51578;SDS011;47998;53.242;6.386;2024-02-14T06:09:15;16.92;;;7.80;;
51578;SDS011;47998;53.242;6.386;2024-02-14T06:11:41;15.07;;;6.45;;
51578;SDS011;47998;53.242;6.386;2024-02-14T06:14:09;14.10;;;6.75;;
51578;SDS011;47998;53.242;6.386;2024-02-14T06:16:34;13.48;;;6.50;;
51578;SDS011;47998;53.242;6.386;2024-02-14T06:19:01;17.05;;;7.55;;
51578;SDS011;47998;53.242;6.386;2024-02-14T06:21:30;17.55;;;7.85;;
51578;SDS011;47998;53.242;6.386;2024-02-14T06:23:55;16.38;;;5.57;;
51578;SDS011;47998;53.242;6.386;2024-02-14T06:26:23;26.80;;;9.05;;
51578;SDS011;47998;53.242;6.386;2024-02-14T06:28:49;28.67;;;6.68;;
51578;SDS011;47998;53.242;6.386;2024-02-14T06:31:19;26.77;;;7.75;;
51578;SDS011;47998;53.242;6.386;2024-02-14T06:33:46;26.45;;;8.65;;
51578;SDS011;47998;53.242;6.386;2024-02-14T06:36:12;38.83;;;10.32;;
51578;SDS011;47998;53.242;6.386;2024-02-14T06:38:38;36.60;;;9.95;;
51578;SDS011;47998;53.242;6.386;2024-02-14T06:41:04;44.85;;;10.20;;
51578;SDS011;47998;53.242;6.386;2024-02-14T06:43:30;37.30;;;8.93;;
51578;SDS011;47998;53.242;6.386;2024-02-14T06:45:56;44.53;;;9.95;;
51578;SDS011;47998;53.242;6.386;2024-02-14T06:48:22;33.88;;;8.38;;
51578;SDS011;47998;53.242;6.386;2024-02-14T06:50:52;40.05;;;9.38;;
51578;SDS011;47998;53.242;6.386;2024-02-14T06:53:18;49.90;;;11.13;;
51578;SDS011;47998;53.242;6.386;2024-02-14T06:55:44;48.13;;;10.05;;
51578;SDS011;47998;53.242;6.386;2024-02-14T06:58:10;49.42;;;10.85;;
51578;SDS011;47998;53.242;6.386;2024-02-14T07:00:36;42.70;;;9.10;;
51578;SDS011;47998;53.242;6.386;2024-02-14T07:03:02;59.15;;;12.25;;
51578;SDS011;47998;53.242;6.386;2024-02-14T07:05:28;48.58;;;10.90;;
51578;SDS011;47998;53.242;6.386;2024-02-14T07:07:54;54.97;;;10.30;;
51578;SDS011;47998;53.242;6.386;2024-02-14T07:10:21;53.63;;;11.93;;
51578;SDS011;47998;53.242;6.386;2024-02-14T07:12:46;57.95;;;12.93;;
51578;SDS011;47998;53.242;6.386;2024-02-14T07:15:12;53.63;;;10.43;;
51578;SDS011;47998;53.242;6.386;2024-02-14T07:17:38;50.00;;;12.30;;
51578;SDS011;47998;53.242;6.386;2024-02-14T07:20:05;58.05;;;11.70;;
51578;SDS011;47998;53.242;6.386;2024-02-14T07:22:34;66.68;;;13.20;;
51578;SDS011;47998;53.242;6.386;2024-02-14T07:25:00;62.85;;;11.95;;
51578;SDS011;47998;53.242;6.386;2024-02-14T07:27:27;54.83;;;10.57;;
51578;SDS011;47998;53.242;6.386;2024-02-14T07:29:53;65.25;;;10.93;;
51578;SDS011;47998;53.242;6.386;2024-02-14T07:32:19;73.47;;;12.80;;
51578;SDS011;47998;53.242;6.386;2024-02-14T07:34:45;59.85;;;10.70;;
51578;SDS011;47998;53.242;6.386;2024-02-14T07:37:11;60.55;;;9.75;;
51578;SDS011;47998;53.242;6.386;2024-02-14T07:39:37;41.60;;;7.93;;
51578;SDS011;47998;53.242;6.386;2024-02-14T07:42:03;58.58;;;11.88;;
51578;SDS011;47998;53.242;6.386;2024-02-14T07:44:29;76.00;;;11.88;;
51578;SDS011;47998;53.242;6.386;2024-02-14T07:46:55;61.38;;;9.63;;
51578;SDS011;47998;53.242;6.386;2024-02-14T07:49:20;65.63;;;11.50;;
51578;SDS011;47998;53.242;6.386;2024-02-14T07:51:46;60.20;;;12.13;;
51578;SDS011;47998;53.242;6.386;2024-02-14T07:54:13;54.90;;;9.60;;
51578;SDS011;47998;53.242;6.386;2024-02-14T07:56:39;54.83;;;9.05;;
51578;SDS011;47998;53.242;6.386;2024-02-14T07:59:05;58.10;;;9.35;;
51578;SDS011;47998;53.242;6.386;2024-02-14T08:01:30;60.78;;;12.15;;
51578;SDS011;47998;53.242;6.386;2024-02-14T08:03:57;61.45;;;11.35;;
51578;SDS011;47998;53.242;6.386;2024-02-14T08:06:23;56.78;;;9.30;;
51578;SDS011;47998;53.242;6.386;2024-02-14T08:08:49;56.38;;;9.45;;
51578;SDS011;47998;53.242;6.386;2024-02-14T08:11:19;57.08;;;9.27;;
51578;SDS011;47998;53.242;6.386;2024-02-14T08:13:45;46.10;;;6.05;;
51578;SDS011;47998;53.242;6.386;2024-02-14T08:16:11;59.78;;;10.60;;
51578;SDS011;47998;53.242;6.386;2024-02-14T08:18:37;59.38;;;10.30;;
51578;SDS011;47998;53.242;6.386;2024-02-14T08:21:05;56.90;;;10.07;;
51578;SDS011;47998;53.242;6.386;2024-02-14T08:23:31;56.47;;;9.23;;
51578;SDS011;47998;53.242;6.386;2024-02-14T08:25:58;42.92;;;7.93;;
51578;SDS011;47998;53.242;6.386;2024-02-14T08:28:23;58.45;;;10.32;;
51578;SDS011;47998;53.242;6.386;2024-02-14T08:30:49;52.10;;;10.82;;
51578;SDS011;47998;53.242;6.386;2024-02-14T08:33:16;51.50;;;9.90;;
51578;SDS011;47998;53.242;6.386;2024-02-14T08:35:42;51.70;;;9.32;;
51578;SDS011;47998;53.242;6.386;2024-02-14T08:38:08;53.00;;;11.40;;
51578;SDS011;47998;53.242;6.386;2024-02-14T08:40:34;47.55;;;11.63;;
51578;SDS011;47998;53.242;6.386;2024-02-14T08:43:00;27.00;;;8.02;;
51578;SDS011;47998;53.242;6.386;2024-02-14T08:45:25;33.55;;;10.02;;
51578;SDS011;47998;53.242;6.386;2024-02-14T08:47:55;50.72;;;11.18;;
51578;SDS011;47998;53.242;6.386;2024-02-14T08:50:20;48.45;;;11.40;;
51578;SDS011;47998;53.242;6.386;2024-02-14T08:52:46;38.22;;;8.90;;
51578;SDS011;47998;53.242;6.386;2024-02-14T08:55:12;36.70;;;8.93;;
51578;SDS011;47998;53.242;6.386;2024-02-14T08:57:42;35.40;;;8.68;;
51578;SDS011;47998;53.242;6.386;2024-02-14T09:00:08;48.28;;;10.65;;
51578;SDS011;47998;53.242;6.386;2024-02-14T09:02:36;53.67;;;11.90;;
51578;SDS011;47998;53.242;6.386;2024-02-14T09:05:02;31.83;;;9.60;;
51578;SDS011;47998;53.242;6.386;2024-02-14T09:07:31;39.60;;;10.82;;
51578;SDS011;47998;53.242;6.386;2024-02-14T09:09:59;38.60;;;11.70;;
51578;SDS011;47998;53.242;6.386;2024-02-14T09:12:25;31.85;;;8.75;;
51578;SDS011;47998;53.242;6.386;2024-02-14T09:14:51;37.50;;;12.73;;
51578;SDS011;47998;53.242;6.386;2024-02-14T09:17:16;52.38;;;14.05;;
51578;SDS011;47998;53.242;6.386;2024-02-14T09:19:42;47.15;;;13.30;;
51578;SDS011;47998;53.242;6.386;2024-02-14T09:22:08;48.40;;;13.00;;
51578;SDS011;47998;53.242;6.386;2024-02-14T09:24:34;57.50;;;17.00;;
51578;SDS011;47998;53.242;6.386;2024-02-14T09:26:59;60.40;;;16.92;;
51578;SDS011;47998;53.242;6.386;2024-02-14T09:29:27;46.80;;;14.90;;
51578;SDS011;47998;53.242;6.386;2024-02-14T09:31:53;47.35;;;15.73;;
51578;SDS011;47998;53.242;6.386;2024-02-14T09:34:19;47.25;;;15.00;;
51578;SDS011;47998;53.242;6.386;2024-02-14T09:36:47;33.50;;;13.02;;
51578;SDS011;47998;53.242;6.386;2024-02-14T09:39:14;52.10;;;14.57;;
51578;SDS011;47998;53.242;6.386;2024-02-14T09:41:42;42.63;;;14.32;;
51578;SDS011;47998;53.242;6.386;2024-02-14T09:44:10;36.10;;;12.10;;
51578;SDS011;47998;53.242;6.386;2024-02-14T09:46:36;35.67;;;11.73;;
51578;SDS011;47998;53.242;6.386;2024-02-14T09:49:03;47.53;;;15.30;;
51578;SDS011;47998;53.242;6.386;2024-02-14T09:51:30;39.20;;;13.63;;
51578;SDS011;47998;53.242;6.386;2024-02-14T09:53:56;40.53;;;12.02;;
51578;SDS011;47998;53.242;6.386;2024-02-14T09:56:25;46.50;;;16.88;;
51578;SDS011;47998;53.242;6.386;2024-02-14T09:58:52;39.30;;;15.77;;
51578;SDS011;47998;53.242;6.386;2024-02-14T10:01:22;61.00;;;19.85;;
51578;SDS011;47998;53.242;6.386;2024-02-14T10:03:53;42.22;;;15.82;;
51578;SDS011;47998;53.242;6.386;2024-02-14T10:06:19;38.78;;;15.50;;
51578;SDS011;47998;53.242;6.386;2024-02-14T10:08:50;39.42;;;18.25;;
51578;SDS011;47998;53.242;6.386;2024-02-14T10:11:16;31.90;;;13.25;;
51578;SDS011;47998;53.242;6.386;2024-02-14T10:13:46;40.72;;;16.25;;
51578;SDS011;47998;53.242;6.386;2024-02-14T10:16:13;33.55;;;15.15;;
51578;SDS011;47998;53.242;6.386;2024-02-14T10:18:44;34.13;;;15.98;;
51578;SDS011;47998;53.242;6.386;2024-02-14T10:21:19;43.08;;;18.10;;
51578;SDS011;47998;53.242;6.386;2024-02-14T10:23:47;38.33;;;16.40;;
51578;SDS011;47998;53.242;6.386;2024-02-14T10:26:17;42.00;;;15.88;;
51578;SDS011;47998;53.242;6.386;2024-02-14T10:28:43;32.45;;;15.65;;
51578;SDS011;47998;53.242;6.386;2024-02-14T10:31:12;35.58;;;13.60;;
51578;SDS011;47998;53.242;6.386;2024-02-14T10:33:38;25.25;;;12.45;;
51578;SDS011;47998;53.242;6.386;2024-02-14T10:36:06;29.60;;;11.18;;
51578;SDS011;47998;53.242;6.386;2024-02-14T10:38:34;28.05;;;13.15;;
51578;SDS011;47998;53.242;6.386;2024-02-14T10:41:00;29.20;;;13.00;;
51578;SDS011;47998;53.242;6.386;2024-02-14T10:43:27;31.05;;;13.90;;
51578;SDS011;47998;53.242;6.386;2024-02-14T10:45:53;31.00;;;16.23;;
51578;SDS011;47998;53.242;6.386;2024-02-14T10:48:23;29.42;;;13.90;;
51578;SDS011;47998;53.242;6.386;2024-02-14T10:50:54;21.38;;;11.85;;
51578;SDS011;47998;53.242;6.386;2024-02-14T10:53:23;25.60;;;13.30;;
51578;SDS011;47998;53.242;6.386;2024-02-14T10:55:51;23.52;;;11.80;;
51578;SDS011;47998;53.242;6.386;2024-02-14T10:58:20;23.65;;;13.23;;
51578;SDS011;47998;53.242;6.386;2024-02-14T11:00:49;20.80;;;9.80;;
51578;SDS011;47998;53.242;6.386;2024-02-14T11:03:16;20.45;;;12.23;;
51578;SDS011;47998;53.242;6.386;2024-02-14T11:05:46;17.50;;;9.30;;
51578;SDS011;47998;53.242;6.386;2024-02-14T11:08:19;19.50;;;10.13;;
51578;SDS011;47998;53.242;6.386;2024-02-14T11:10:54;18.05;;;10.48;;
51578;SDS011;47998;53.242;6.386;2024-02-14T11:13:21;20.92;;;10.57;;
51578;SDS011;47998;53.242;6.386;2024-02-14T11:15:51;22.90;;;12.98;;
51578;SDS011;47998;53.242;6.386;2024-02-14T11:18:26;20.02;;;11.50;;
51578;SDS011;47998;53.242;6.386;2024-02-14T11:20:55;20.55;;;11.45;;
51578;SDS011;47998;53.242;6.386;2024-02-14T11:23:22;19.27;;;10.38;;
51578;SDS011;47998;53.242;6.386;2024-02-14T11:25:49;26.92;;;12.50;;
51578;SDS011;47998;53.242;6.386;2024-02-14T11:28:19;18.92;;;11.13;;
51578;SDS011;47998;53.242;6.386;2024-02-14T11:33:15;16.30;;;8.65;;
51578;SDS011;47998;53.242;6.386;2024-02-14T11:35:46;15.48;;;9.80;;
51578;SDS011;47998;53.242;6.386;2024-02-14T11:38:17;14.13;;;8.88;;
51578;SDS011;47998;53.242;6.386;2024-02-14T11:40:43;19.17;;;9.80;;
51578;SDS011;47998;53.242;6.386;2024-02-14T11:43:13;14.27;;;8.73;;
51578;SDS011;47998;53.242;6.386;2024-02-14T11:45:42;12.60;;;7.97;;
51578;SDS011;47998;53.242;6.386;2024-02-14T11:48:13;11.50;;;6.90;;
51578;SDS011;47998;53.242;6.386;2024-02-14T11:50:43;10.40;;;8.05;;
51578;SDS011;47998;53.242;6.386;2024-02-14T11:56:02;12.27;;;6.73;;
51578;SDS011;47998;53.242;6.386;2024-02-14T11:58:30;9.55;;;6.60;;
51578;SDS011;47998;53.242;6.386;2024-02-14T12:00:59;7.50;;;4.95;;
51578;SDS011;47998;53.242;6.386;2024-02-14T12:03:34;6.05;;;5.20;;
51578;SDS011;47998;53.242;6.386;2024-02-14T12:06:00;9.48;;;5.65;;
51578;SDS011;47998;53.242;6.386;2024-02-14T12:08:28;6.55;;;4.78;;
51578;SDS011;47998;53.242;6.386;2024-02-14T12:10:54;10.75;;;5.35;;
51578;SDS011;47998;53.242;6.386;2024-02-14T12:13:22;6.28;;;5.20;;
51578;SDS011;47998;53.242;6.386;2024-02-14T12:15:49;9.40;;;5.82;;
51578;SDS011;47998;53.242;6.386;2024-02-14T12:18:16;7.32;;;5.68;;
51578;SDS011;47998;53.242;6.386;2024-02-14T12:20:44;6.50;;;5.25;;
51578;SDS011;47998;53.242;6.386;2024-02-14T12:23:16;9.88;;;5.25;;
51578;SDS011;47998;53.242;6.386;2024-02-14T12:25:43;7.53;;;4.68;;
51578;SDS011;47998;53.242;6.386;2024-02-14T12:28:17;8.82;;;5.40;;
51578;SDS011;47998;53.242;6.386;2024-02-14T12:30:47;7.85;;;5.22;;
51578;SDS011;47998;53.242;6.386;2024-02-14T12:33:21;9.27;;;5.80;;
51578;SDS011;47998;53.242;6.386;2024-02-14T12:35:48;9.73;;;5.78;;
51578;SDS011;47998;53.242;6.386;2024-02-14T12:38:16;9.45;;;6.75;;
51578;SDS011;47998;53.242;6.386;2024-02-14T12:40:42;10.90;;;6.07;;
51578;SDS011;47998;53.242;6.386;2024-02-14T12:43:11;9.45;;;6.38;;
51578;SDS011;47998;53.242;6.386;2024-02-14T12:45:38;11.23;;;7.28;;
51578;SDS011;47998;53.242;6.386;2024-02-14T12:48:05;12.07;;;6.95;;
51578;SDS011;47998;53.242;6.386;2024-02-14T12:50:33;12.45;;;6.68;;
51578;SDS011;47998;53.242;6.386;2024-02-14T12:53:03;7.45;;;5.93;;
51578;SDS011;47998;53.242;6.386;2024-02-14T12:55:29;7.65;;;4.70;;
51578;SDS011;47998;53.242;6.386;2024-02-14T12:57:55;11.68;;;6.82;;
51578;SDS011;47998;53.242;6.386;2024-02-14T13:00:22;10.48;;;6.07;;
51578;SDS011;47998;53.242;6.386;2024-02-14T13:02:51;10.98;;;6.35;;
51578;SDS011;47998;53.242;6.386;2024-02-14T13:05:18;7.40;;;5.82;;
51578;SDS011;47998;53.242;6.386;2024-02-14T13:07:44;6.53;;;3.75;;
51578;SDS011;47998;53.242;6.386;2024-02-14T13:10:11;7.88;;;4.55;;
51578;SDS011;47998;53.242;6.386;2024-02-14T13:12:37;8.05;;;5.10;;
51578;SDS011;47998;53.242;6.386;2024-02-14T13:15:04;6.43;;;5.10;;
51578;SDS011;47998;53.242;6.386;2024-02-14T13:17:30;8.52;;;6.18;;
51578;SDS011;47998;53.242;6.386;2024-02-14T13:19:56;8.75;;;5.93;;
51578;SDS011;47998;53.242;6.386;2024-02-14T13:22:25;8.38;;;7.20;;
51578;SDS011;47998;53.242;6.386;2024-02-14T13:24:51;6.55;;;5.85;;
51578;SDS011;47998;53.242;6.386;2024-02-14T13:27:17;9.23;;;7.43;;
51578;SDS011;47998;53.242;6.386;2024-02-14T13:29:45;8.55;;;6.47;;
51578;SDS011;47998;53.242;6.386;2024-02-14T13:32:11;8.45;;;6.45;;
51578;SDS011;47998;53.242;6.386;2024-02-14T13:34:36;8.52;;;7.07;;
51578;SDS011;47998;53.242;6.386;2024-02-14T13:37:03;9.15;;;6.22;;
51578;SDS011;47998;53.242;6.386;2024-02-14T13:39:29;8.77;;;6.15;;
51578;SDS011;47998;53.242;6.386;2024-02-14T13:41:55;9.82;;;6.47;;
51578;SDS011;47998;53.242;6.386;2024-02-14T13:44:23;10.82;;;7.60;;
51578;SDS011;47998;53.242;6.386;2024-02-14T13:46:49;10.68;;;7.57;;
51578;SDS011;47998;53.242;6.386;2024-02-14T13:49:15;11.23;;;8.45;;
51578;SDS011;47998;53.242;6.386;2024-02-14T13:51:46;11.57;;;8.10;;
51578;SDS011;47998;53.242;6.386;2024-02-14T13:54:13;11.60;;;7.95;;
51578;SDS011;47998;53.242;6.386;2024-02-14T13:56:39;12.38;;;9.13;;
51578;SDS011;47998;53.242;6.386;2024-02-14T13:59:05;13.05;;;8.68;;
51578;SDS011;47998;53.242;6.386;2024-02-14T14:01:31;13.23;;;8.63;;
51578;SDS011;47998;53.242;6.386;2024-02-14T14:03:57;14.70;;;9.90;;
51578;SDS011;47998;53.242;6.386;2024-02-14T14:06:23;23.38;;;12.88;;
51578;SDS011;47998;53.242;6.386;2024-02-14T14:08:52;19.75;;;12.60;;
51578;SDS011;47998;53.242;6.386;2024-02-14T14:11:18;20.23;;;13.50;;
51578;SDS011;47998;53.242;6.386;2024-02-14T14:13:43;20.98;;;12.52;;
51578;SDS011;47998;53.242;6.386;2024-02-14T14:16:09;26.02;;;14.68;;
51578;SDS011;47998;53.242;6.386;2024-02-14T14:18:36;30.40;;;15.75;;
51578;SDS011;47998;53.242;6.386;2024-02-14T14:21:02;20.38;;;12.00;;
51578;SDS011;47998;53.242;6.386;2024-02-14T14:23:28;18.98;;;12.25;;
51578;SDS011;47998;53.242;6.386;2024-02-14T14:25:54;12.65;;;9.30;;
51578;SDS011;47998;53.242;6.386;2024-02-14T14:28:20;15.18;;;10.40;;
51578;SDS011;47998;53.242;6.386;2024-02-14T14:30:53;16.83;;;12.38;;
51578;SDS011;47998;53.242;6.386;2024-02-14T14:33:19;16.88;;;11.43;;